Time;durP1;ratioP1;P1;durP2;ratioP2;P2;SDS_P1;SDS_P2;PMS_P1;PMS_P2;Temp;Humidity;BMP_temperature;BMP_pressure;BME280_temperature;BME280_humidity;BME280_pressure;Samples;Min_cycle;Max_cycle;Signal;HPM_P1;HPM_P2
2021/11/03 00:00:07;;;;;;;2.95;1.80;;;;;12.20;99902.00;;;;5035612;28;20196;-81
2021/11/03 00:02:34;;;;;;;2.65;1.90;;;;;12.20;99894.00;;;;5033156;28;20203;-81
2021/11/03 00:05:02;;;;;;;3.10;1.83;;;;;12.20;99898.00;;;;5030844;28;20203;-82
2021/11/03 00:07:31;;;;;;;6.07;2.50;;;;;12.20;99897.00;;;;5038395;28;20204;-81
2021/11/03 00:09:59;;;;;;;3.38;2.08;;;;;12.20;99898.00;;;;5047563;28;20569;-81
2021/11/03 00:12:28;;;;;;;3.88;2.83;;;;;12.20;99902.00;;;;5037231;28;20629;-81
2021/11/03 00:14:55;;;;;;;5.22;2.97;;;;;12.20;99902.00;;;;5032650;28;20220;-82
2021/11/03 00:17:22;;;;;;;4.00;3.10;;;;;12.30;99905.00;;;;5028791;28;20204;-82
2021/11/03 00:19:50;;;;;;;4.93;3.25;;;;;12.30;99902.00;;;;5038354;28;20219;-82
2021/11/03 00:22:18;;;;;;;7.20;3.30;;;;;12.30;99905.00;;;;5044516;28;20214;-82
2021/11/03 00:24:45;;;;;;;15.85;4.10;;;;;12.40;99899.00;;;;5030497;28;20726;-81
2021/11/03 00:27:13;;;;;;;12.35;4.30;;;;;12.40;99908.00;;;;5036600;28;20218;-82
2021/11/03 00:29:41;;;;;;;4.78;3.85;;;;;12.40;99903.00;;;;5033951;28;20693;-82
2021/11/03 00:32:10;;;;;;;4.50;3.55;;;;;12.40;99909.00;;;;5039059;28;20192;-81
2021/11/03 00:34:38;;;;;;;4.15;3.45;;;;;12.40;99904.00;;;;5046758;28;20219;-81
2021/11/03 00:37:06;;;;;;;6.78;3.45;;;;;12.40;99902.00;;;;5036236;28;20208;-81
2021/11/03 00:39:33;;;;;;;5.03;3.47;;;;;12.40;99911.00;;;;5041295;28;20202;-81
2021/11/03 00:42:02;;;;;;;4.57;3.00;;;;;12.50;99908.00;;;;5032234;28;20675;-81
2021/11/03 00:44:29;;;;;;;4.53;3.75;;;;;12.50;99909.00;;;;5037445;28;20191;-81
2021/11/03 00:46:59;;;;;;;8.10;3.17;;;;;12.50;99911.00;;;;5027787;28;20204;-81
2021/11/03 00:49:26;;;;;;;5.57;3.85;;;;;12.50;99917.00;;;;5046368;28;20230;-81
2021/11/03 00:51:54;;;;;;;6.10;4.00;;;;;12.50;99916.00;;;;5038491;28;20200;-81
2021/11/03 00:54:21;;;;;;;4.43;3.85;;;;;12.50;99917.00;;;;5039377;28;20230;-81
2021/11/03 00:56:49;;;;;;;7.45;3.80;;;;;12.50;99918.00;;;;5031239;28;20204;-81
2021/11/03 00:59:17;;;;;;;5.72;3.88;;;;;12.50;99922.00;;;;5032105;28;20211;-82
2021/11/03 01:01:45;;;;;;;5.65;3.58;;;;;12.50;99917.00;;;;5033224;28;20199;-81
2021/11/03 01:04:14;;;;;;;5.82;3.97;;;;;12.50;99913.00;;;;5039014;28;20223;-82
2021/11/03 01:06:41;;;;;;;7.03;3.92;;;;;12.50;99908.00;;;;5039094;28;20200;-81
2021/11/03 01:09:08;;;;;;;4.07;3.67;;;;;12.50;99918.00;;;;5041133;28;20214;-82
2021/11/03 01:11:36;;;;;;;5.57;4.10;;;;;12.50;99921.00;;;;5043779;28;20211;-81
2021/11/03 01:14:03;;;;;;;3.42;3.13;;;;;12.60;99915.00;;;;5050789;28;20203;-81
2021/11/03 01:16:31;;;;;;;3.78;3.38;;;;;12.60;99908.00;;;;5048877;28;20206;-82
2021/11/03 01:18:58;;;;;;;4.32;3.47;;;;;12.60;99903.00;;;;5037265;28;20195;-81
2021/11/03 01:21:28;;;;;;;5.32;3.75;;;;;12.50;99903.00;;;;5040492;28;20195;-82
2021/11/03 01:23:55;;;;;;;6.00;4.30;;;;;12.60;99900.00;;;;5039663;28;20207;-82
2021/11/03 01:26:22;;;;;;;4.47;3.60;;;;;12.60;99899.00;;;;5041601;28;20227;-81
2021/11/03 01:28:49;;;;;;;4.90;3.70;;;;;12.60;99908.00;;;;5036117;28;20585;-82
2021/11/03 01:31:18;;;;;;;5.70;3.72;;;;;12.60;99902.00;;;;5037224;28;20748;-82
2021/11/03 01:33:46;;;;;;;3.83;3.42;;;;;12.60;99906.00;;;;5031721;28;20192;-81
2021/11/03 01:36:14;;;;;;;4.32;3.72;;;;;12.60;99912.00;;;;5032950;28;20227;-82
2021/11/03 01:38:43;;;;;;;4.28;3.88;;;;;12.50;99909.00;;;;5038125;28;20297;-81
2021/11/03 01:41:10;;;;;;;4.35;3.92;;;;;12.50;99901.00;;;;5040634;28;20195;-81
2021/11/03 01:43:42;;;;;;;4.55;3.65;;;;;12.50;99909.00;;;;5033344;28;20384;-81
2021/11/03 01:46:21;;;;;;;4.60;3.58;;;;;12.40;99898.00;;;;5049499;28;20207;-81
2021/11/03 01:48:50;;;;;;;3.85;2.92;;;;;12.50;99900.00;;;;5040990;28;20242;-82
2021/11/03 01:51:22;;;;;;;4.10;3.10;;;;;12.50;99901.00;;;;5043311;28;20564;-82
2021/11/03 01:53:51;;;;;;;4.55;4.05;;;;;12.50;99899.00;;;;5035820;28;20204;-82
2021/11/03 01:56:20;;;;;;;4.68;3.70;;;;;12.50;99890.00;;;;5038436;28;20223;-82
2021/11/03 01:58:51;;;;;;;4.50;3.55;;;;;12.40;99889.00;;;;5041785;28;20319;-82
2021/11/03 02:01:19;;;;;;;4.55;4.03;;;;;12.40;99888.00;;;;5038451;28;20193;-81
2021/11/03 02:03:48;;;;;;;8.35;3.55;;;;;12.40;99890.00;;;;5050868;28;20700;-82
2021/11/03 02:06:18;;;;;;;4.25;3.72;;;;;12.40;99881.00;;;;5034243;28;20192;-81
2021/11/03 02:08:47;;;;;;;6.03;3.42;;;;;12.40;99879.00;;;;5037237;28;20663;-82
2021/11/03 02:11:18;;;;;;;4.65;4.18;;;;;12.40;99880.00;;;;5043795;28;20211;-81
2021/11/03 02:13:47;;;;;;;5.40;3.88;;;;;12.40;99876.00;;;;5031949;28;20200;-82
2021/11/03 02:16:16;;;;;;;11.32;3.90;;;;;12.30;99872.00;;;;5044506;28;20231;-82
2021/11/03 02:18:44;;;;;;;4.43;3.97;;;;;12.30;99866.00;;;;5040505;28;20196;-82
2021/11/03 02:21:17;;;;;;;4.40;3.65;;;;;12.30;99872.00;;;;5042815;28;20208;-81
2021/11/03 02:23:56;;;;;;;4.55;3.83;;;;;12.20;99861.00;;;;5031365;28;20192;-81
2021/11/03 02:26:29;;;;;;;3.60;3.30;;;;;12.20;99863.00;;;;5035568;28;20639;-82
2021/11/03 02:28:59;;;;;;;4.00;3.45;;;;;12.20;99864.00;;;;5035008;28;20187;-82
2021/11/03 02:31:32;;;;;;;8.05;3.42;;;;;12.20;99868.00;;;;5034332;28;20192;-81
2021/11/03 02:34:00;;;;;;;4.22;3.83;;;;;12.20;99865.00;;;;5040196;28;20215;-81
2021/11/03 02:36:27;;;;;;;4.20;3.80;;;;;12.20;99868.00;;;;5039893;28;20224;-81
2021/11/03 02:38:54;;;;;;;3.97;3.55;;;;;12.20;99864.00;;;;5031438;28;20231;-81
2021/11/03 02:41:25;;;;;;;5.75;3.45;;;;;12.10;99868.00;;;;5034220;28;20203;-81
2021/11/03 02:43:58;;;;;;;4.45;3.60;;;;;12.10;99865.00;;;;5030463;28;20208;-81
2021/11/03 02:46:26;;;;;;;9.27;4.55;;;;;12.10;99863.00;;;;5031102;28;20200;-82
2021/11/03 02:48:53;;;;;;;6.30;3.63;;;;;12.10;99853.00;;;;5042754;28;20239;-81
2021/11/03 02:51:23;;;;;;;5.40;4.10;;;;;12.00;99846.00;;;;5030834;28;20203;-81
2021/11/03 02:53:53;;;;;;;4.72;3.70;;;;;12.00;99851.00;;;;5039403;28;20207;-81
2021/11/03 02:56:25;;;;;;;4.47;3.70;;;;;12.00;99836.00;;;;5040541;28;20231;-81
2021/11/03 02:58:52;;;;;;;3.63;3.28;;;;;12.00;99834.00;;;;5035846;28;20192;-81
2021/11/03 03:01:30;;;;;;;4.32;3.72;;;;;12.00;99829.00;;;;5047978;28;20207;-81
2021/11/03 03:03:57;;;;;;;5.03;4.28;;;;;12.00;99837.00;;;;5038523;28;20226;-81
2021/11/03 03:06:27;;;;;;;4.38;3.40;;;;;11.90;99838.00;;;;5038482;28;20199;-81
2021/11/03 03:08:56;;;;;;;4.25;3.60;;;;;11.90;99831.00;;;;5036908;28;20208;-81
2021/11/03 03:11:27;;;;;;;4.15;3.30;;;;;11.80;99837.00;;;;5041330;28;20720;-82
2021/11/03 03:13:54;;;;;;;4.07;3.67;;;;;11.80;99835.00;;;;5034090;28;20694;-81
2021/11/03 03:16:22;;;;;;;4.78;3.85;;;;;11.80;99838.00;;;;5041521;28;20231;-81
2021/11/03 03:18:50;;;;;;;4.40;4.00;;;;;11.80;99838.00;;;;5041469;28;20200;-81
2021/11/03 03:21:19;;;;;;;5.22;3.72;;;;;11.80;99842.00;;;;5037934;28;20231;-81
2021/11/03 03:23:47;;;;;;;4.00;3.63;;;;;11.80;99845.00;;;;5030336;28;20204;-82
2021/11/03 03:26:18;;;;;;;8.18;3.33;;;;;11.70;99841.00;;;;5030437;28;20208;-81
2021/11/03 03:28:47;;;;;;;16.10;4.00;;;;;11.70;99850.00;;;;5038764;28;20199;-81
2021/11/03 03:31:16;;;;;;;5.03;3.35;;;;;11.70;99856.00;;;;5029279;28;20192;-81
2021/11/03 03:33:44;;;;;;;3.63;3.33;;;;;11.70;99844.00;;;;5029377;28;20654;-80
2021/11/03 03:36:12;;;;;;;3.65;3.30;;;;;11.70;99848.00;;;;5034965;28;20227;-81
2021/11/03 03:38:40;;;;;;;6.35;2.85;;;;;11.70;99858.00;;;;5042771;28;20187;-82
2021/11/03 03:41:08;;;;;;;4.68;2.95;;;;;11.70;99858.00;;;;5047497;28;20198;-82
2021/11/03 03:43:35;;;;;;;3.40;3.03;;;;;11.70;99870.00;;;;5030770;28;20666;-82
2021/11/03 03:46:04;;;;;;;4.05;3.65;;;;;11.60;99878.00;;;;5042926;28;20577;-81
2021/11/03 03:48:31;;;;;;;4.13;3.72;;;;;11.60;99886.00;;;;5041868;28;20207;-82
2021/11/03 03:50:58;;;;;;;5.20;3.17;;;;;11.60;99882.00;;;;5050077;28;20218;-82
2021/11/03 03:53:26;;;;;;;3.65;3.35;;;;;11.50;99888.00;;;;5029912;28;20216;-81
2021/11/03 03:55:54;;;;;;;3.90;3.50;;;;;11.50;99889.00;;;;5030316;28;20224;-81
2021/11/03 03:58:21;;;;;;;6.28;3.72;;;;;11.50;99899.00;;;;5034689;28;20207;-82
2021/11/03 04:00:50;;;;;;;3.33;3.03;;;;;11.50;99900.00;;;;5038571;28;20203;-81
2021/11/03 04:03:20;;;;;;;4.25;3.80;;;;;11.50;99911.00;;;;5048736;28;20666;-81
2021/11/03 04:05:48;;;;;;;3.45;3.15;;;;;11.50;99908.00;;;;5043526;28;20207;-82
2021/11/03 04:08:16;;;;;;;4.75;3.33;;;;;11.50;99912.00;;;;5035102;28;20200;-81
2021/11/03 04:10:44;;;;;;;5.10;4.00;;;;;11.50;99906.00;;;;5030945;28;20188;-81
2021/11/03 04:13:12;;;;;;;4.13;3.72;;;;;11.50;99906.00;;;;5030686;28;20201;-82
2021/11/03 04:15:40;;;;;;;4.07;3.67;;;;;11.50;99907.00;;;;5034439;28;20640;-81
2021/11/03 04:18:07;;;;;;;3.97;3.58;;;;;11.50;99906.00;;;;5035121;28;20204;-81
2021/11/03 04:20:37;;;;;;;8.52;3.50;;;;;11.50;99912.00;;;;5033363;28;20644;-82
2021/11/03 04:23:05;;;;;;;6.20;3.80;;;;;11.50;99903.00;;;;5034669;28;20210;-81
2021/11/03 04:25:32;;;;;;;4.68;3.22;;;;;11.50;99903.00;;;;5029148;28;20585;-82
2021/11/03 04:28:02;;;;;;;4.57;3.55;;;;;11.60;99913.00;;;;5028685;28;20193;-81
2021/11/03 04:30:30;;;;;;;5.78;4.35;;;;;11.60;99911.00;;;;5035789;28;20196;-81
2021/11/03 04:32:58;;;;;;;10.68;3.88;;;;;11.60;99905.00;;;;5028793;28;20207;-81
2021/11/03 04:35:26;;;;;;;5.22;4.07;;;;;11.60;99905.00;;;;5037412;28;20224;-81
2021/11/03 04:37:55;;;;;;;5.53;4.13;;;;;11.60;99914.00;;;;5039244;28;20207;-82
2021/11/03 04:40:24;;;;;;;9.85;4.57;;;;;11.60;99909.00;;;;5029244;28;20630;-81
2021/11/03 04:42:52;;;;;;;7.32;4.20;;;;;11.60;99913.00;;;;5028746;28;20203;-81
2021/11/03 04:45:22;;;;;;;6.07;4.38;;;;;11.60;99923.00;;;;5038772;28;20212;-82
2021/11/03 04:47:49;;;;;;;5.90;4.80;;;;;11.60;99919.00;;;;5028562;28;20666;-82
2021/11/03 04:50:20;;;;;;;5.63;4.25;;;;;11.60;99923.00;;;;5029846;28;20224;-81
2021/11/03 04:52:49;;;;;;;5.85;4.25;;;;;11.60;99931.00;;;;5035243;28;20196;-82
2021/11/03 04:55:18;;;;;;;6.85;4.68;;;;;11.60;99934.00;;;;5036919;28;20231;-82
2021/11/03 04:57:46;;;;;;;4.70;3.92;;;;;11.60;99930.00;;;;5029323;28;20207;-81
2021/11/03 05:00:17;;;;;;;5.60;4.60;;;;;11.60;99941.00;;;;5036181;28;20207;-81
2021/11/03 05:02:45;;;;;;;9.73;4.22;;;;;11.60;99938.00;;;;5048674;28;20934;-82
2021/11/03 05:05:13;;;;;;;5.70;4.55;;;;;11.60;99933.00;;;;5048266;28;20313;-81
2021/11/03 05:07:41;;;;;;;5.57;4.22;;;;;11.60;99929.00;;;;5034144;28;20674;-81
2021/11/03 05:10:09;;;;;;;5.53;4.28;;;;;11.60;99927.00;;;;5041246;28;20192;-81
2021/11/03 05:12:38;;;;;;;6.40;4.35;;;;;11.60;99926.00;;;;5028528;28;20219;-81
2021/11/03 05:15:06;;;;;;;5.75;4.45;;;;;11.60;99931.00;;;;5029316;28;20200;-81
2021/11/03 05:17:34;;;;;;;7.93;4.47;;;;;11.60;99927.00;;;;5038600;28;20203;-81
2021/11/03 05:20:01;;;;;;;5.75;4.63;;;;;11.60;99926.00;;;;5030738;28;20196;-81
2021/11/03 05:22:29;;;;;;;5.95;4.78;;;;;11.60;99933.00;;;;5028218;28;20200;-81
2021/11/03 05:24:56;;;;;;;5.65;4.40;;;;;11.60;99931.00;;;;5031909;28;20192;-81
2021/11/03 05:27:24;;;;;;;5.93;4.55;;;;;11.60;99932.00;;;;5028632;28;20258;-82
2021/11/03 05:29:54;;;;;;;6.03;4.85;;;;;11.60;99930.00;;;;5029019;28;20202;-81
2021/11/03 05:32:23;;;;;;;7.68;4.18;;;;;11.60;99934.00;;;;5028516;28;20197;-81
2021/11/03 05:34:51;;;;;;;5.22;4.13;;;;;11.60;99930.00;;;;5028941;28;20880;-82
2021/11/03 05:37:20;;;;;;;6.00;3.75;;;;;11.50;99937.00;;;;5034753;28;20706;-81
2021/11/03 05:39:47;;;;;;;7.60;4.05;;;;;11.60;99932.00;;;;5031198;28;20222;-82
2021/11/03 05:42:15;;;;;;;6.57;4.10;;;;;11.50;99922.00;;;;5031222;28;20200;-82
2021/11/03 05:44:42;;;;;;;4.50;3.65;;;;;11.50;99931.00;;;;5041335;28;20192;-82
2021/11/03 05:47:17;;;;;;;5.43;4.35;;;;;11.50;99922.00;;;;5047939;28;20191;-82
2021/11/03 05:49:44;;;;;;;6.18;4.38;;;;;11.50;99917.00;;;;5038422;28;20235;-81
2021/11/03 05:52:13;;;;;;;5.47;4.25;;;;;11.50;99928.00;;;;5028204;28;20208;-82
2021/11/03 05:54:41;;;;;;;5.47;4.40;;;;;11.50;99929.00;;;;5032936;28;20283;-81
2021/11/03 05:57:08;;;;;;;7.65;4.55;;;;;11.50;99932.00;;;;5045843;28;20242;-82
2021/11/03 05:59:36;;;;;;;5.43;4.32;;;;;11.40;99930.00;;;;5037093;28;20717;-81
2021/11/03 06:02:04;;;;;;;5.10;4.57;;;;;11.50;99926.00;;;;5048040;28;20226;-81
2021/11/03 06:04:32;;;;;;;5.80;4.22;;;;;11.40;99921.00;;;;5039716;28;20199;-81
2021/11/03 06:06:59;;;;;;;5.93;3.63;;;;;11.50;99925.00;;;;5040377;28;20199;-81
2021/11/03 06:09:27;;;;;;;5.65;4.57;;;;;11.40;99924.00;;;;5037177;28;20189;-81
2021/11/03 06:11:54;;;;;;;4.97;3.67;;;;;11.40;99923.00;;;;5044138;28;20207;-82
2021/11/03 06:14:21;;;;;;;5.00;4.32;;;;;11.40;99922.00;;;;5044054;28;20203;-81
2021/11/03 06:16:48;;;;;;;6.20;4.05;;;;;11.40;99918.00;;;;5037803;28;20231;-82
2021/11/03 06:19:15;;;;;;;19.40;4.70;;;;;11.40;99918.00;;;;5047677;28;20199;-81
2021/11/03 06:21:44;;;;;;;7.07;3.58;;;;;11.40;99918.00;;;;5047508;28;20235;-81
2021/11/03 06:24:11;;;;;;;8.90;4.63;;;;;11.40;99913.00;;;;5034040;28;20991;-82
2021/11/03 06:26:39;;;;;;;6.03;4.63;;;;;11.40;99908.00;;;;5033152;28;20196;-81
2021/11/03 06:29:07;;;;;;;8.18;4.40;;;;;11.40;99911.00;;;;5047427;28;20204;-82
2021/11/03 06:31:35;;;;;;;6.57;4.03;;;;;11.40;99915.00;;;;5034061;28;20181;-83
2021/11/03 06:34:05;;;;;;;5.45;4.20;;;;;11.40;99909.00;;;;5028652;28;20674;-83
2021/11/03 06:36:33;;;;;;;4.28;3.65;;;;;11.40;99906.00;;;;5042005;28;20769;-82
2021/11/03 06:39:02;;;;;;;7.40;3.88;;;;;11.30;99906.00;;;;5041168;28;20203;-82
2021/11/03 06:41:34;;;;;;;5.88;4.43;;;;;11.30;99898.00;;;;5041392;28;20207;-82
2021/11/03 06:44:01;;;;;;;5.45;4.28;;;;;11.30;99901.00;;;;5033927;28;20593;-82
2021/11/03 06:46:28;;;;;;;4.78;3.97;;;;;11.30;99907.00;;;;5042529;28;20204;-82
2021/11/03 06:48:56;;;;;;;4.95;4.28;;;;;11.30;99908.00;;;;5030916;28;20224;-81
2021/11/03 06:51:24;;;;;;;4.97;4.30;;;;;11.30;99913.00;;;;5035288;28;20196;-82
2021/11/03 06:53:52;;;;;;;5.38;4.07;;;;;11.30;99918.00;;;;5040814;28;20688;-81
2021/11/03 06:56:20;;;;;;;5.40;4.13;;;;;11.30;99921.00;;;;5038607;28;20228;-82
2021/11/03 06:58:48;;;;;;;4.38;3.92;;;;;11.30;99926.00;;;;5039678;28;20211;-81
2021/11/03 07:01:15;;;;;;;4.28;3.58;;;;;11.30;99922.00;;;;5035734;28;20203;-83
2021/11/03 07:03:45;;;;;;;5.50;4.53;;;;;11.20;99928.00;;;;5030194;28;20673;-81
2021/11/03 07:06:13;;;;;;;4.15;3.65;;;;;11.20;99937.00;;;;5031404;28;20744;-81
2021/11/03 07:08:41;;;;;;;4.88;4.38;;;;;11.20;99934.00;;;;5037914;28;20279;-82
2021/11/03 07:11:09;;;;;;;5.63;4.43;;;;;11.20;99940.00;;;;5030799;28;20228;-82
2021/11/03 07:13:38;;;;;;;4.93;4.35;;;;;11.20;99933.00;;;;5045100;28;20262;-81
2021/11/03 07:16:05;;;;;;;4.60;3.88;;;;;11.20;99929.00;;;;5038184;28;20235;-81
2021/11/03 07:18:33;;;;;;;5.13;4.30;;;;;11.20;99935.00;;;;5037711;28;20199;-81
2021/11/03 07:21:00;;;;;;;4.80;3.83;;;;;11.20;99948.00;;;;5041077;28;20188;-82
2021/11/03 07:23:27;;;;;;;4.70;4.03;;;;;11.20;99947.00;;;;5035093;28;20208;-82
2021/11/03 07:25:55;;;;;;;4.75;4.25;;;;;11.20;99945.00;;;;5030443;28;20213;-82
2021/11/03 07:28:22;;;;;;;5.00;4.18;;;;;11.20;99960.00;;;;5044476;28;20199;-83
2021/11/03 07:30:51;;;;;;;6.18;4.28;;;;;11.20;99961.00;;;;5046741;28;20200;-82
2021/11/03 07:33:19;;;;;;;9.90;4.45;;;;;11.20;99955.00;;;;5042706;28;20202;-82
2021/11/03 07:35:47;;;;;;;7.18;4.43;;;;;11.20;99957.00;;;;5030983;28;20663;-81
2021/11/03 07:38:14;;;;;;;7.13;4.05;;;;;11.20;99959.00;;;;5032845;28;20231;-82
2021/11/03 07:40:46;;;;;;;5.85;4.43;;;;;11.20;99961.00;;;;5047554;28;20204;-82
2021/11/03 07:43:17;;;;;;;5.10;4.20;;;;;11.20;99958.00;;;;5038920;28;20200;-80
2021/11/03 07:45:46;;;;;;;4.55;3.53;;;;;11.10;99952.00;;;;5037398;28;20670;-80
2021/11/03 07:48:15;;;;;;;5.13;3.95;;;;;11.10;99953.00;;;;5035571;28;20214;-80
2021/11/03 07:50:54;;;;;;;4.80;4.03;;;;;11.10;99954.00;;;;5042572;28;20273;-80
2021/11/03 07:53:22;;;;;;;4.45;3.67;;;;;11.20;99955.00;;;;5028821;28;20208;-82
2021/11/03 07:55:53;;;;;;;4.88;3.90;;;;;11.20;99960.00;;;;5032503;28;20282;-81
2021/11/03 07:58:23;;;;;;;4.35;3.65;;;;;11.20;99961.00;;;;5038894;28;20714;-81
2021/11/03 08:00:51;;;;;;;9.32;4.47;;;;;11.20;99955.00;;;;5044675;28;20668;-80
2021/11/03 08:03:20;;;;;;;5.22;4.13;;;;;11.20;99951.00;;;;5044019;28;20669;-80
2021/11/03 08:05:50;;;;;;;5.95;4.72;;;;;11.30;99961.00;;;;5042087;28;20689;-82
2021/11/03 08:08:20;;;;;;;5.65;4.50;;;;;11.30;99952.00;;;;5038623;28;20199;-81
2021/11/03 08:10:48;;;;;;;4.82;4.15;;;;;11.30;99955.00;;;;5037910;28;20245;-80
2021/11/03 08:13:17;;;;;;;4.82;3.90;;;;;11.40;99961.00;;;;5043831;28;20203;-80
2021/11/03 08:15:46;;;;;;;5.00;3.72;;;;;11.40;99952.00;;;;5038354;28;20286;-82
2021/11/03 08:18:14;;;;;;;6.32;4.15;;;;;11.40;99951.00;;;;5049128;28;20234;-82
2021/11/03 08:20:43;;;;;;;4.57;3.95;;;;;11.40;99944.00;;;;5032312;28;20200;-82
2021/11/03 08:23:13;;;;;;;5.53;3.60;;;;;11.50;99954.00;;;;5037224;28;20187;-80
2021/11/03 08:25:41;;;;;;;5.78;4.35;;;;;11.50;99953.00;;;;5047485;28;20207;-82
2021/11/03 08:28:08;;;;;;;4.40;4.00;;;;;11.50;99950.00;;;;5036083;28;20205;-81
2021/11/03 08:30:38;;;;;;;4.75;3.97;;;;;11.60;99959.00;;;;5029420;28;20192;-81
2021/11/03 08:33:09;;;;;;;5.03;4.15;;;;;11.60;99962.00;;;;5035458;28;20200;-81
2021/11/03 08:35:38;;;;;;;4.25;3.85;;;;;11.60;99959.00;;;;5047041;28;20210;-82
2021/11/03 08:38:12;;;;;;;7.22;4.40;;;;;11.70;99956.00;;;;5042767;28;20215;-81
2021/11/03 08:40:39;;;;;;;8.85;4.93;;;;;11.70;99966.00;;;;5038648;28;20188;-82
2021/11/03 08:43:12;;;;;;;6.78;4.20;;;;;11.70;99960.00;;;;5031734;28;20196;-80
2021/11/03 08:45:40;;;;;;;7.53;4.43;;;;;11.80;99965.00;;;;5042698;28;20199;-81
2021/11/03 08:48:08;;;;;;;6.03;3.88;;;;;11.80;99969.00;;;;5039690;28;20204;-82
2021/11/03 08:50:38;;;;;;;5.50;4.38;;;;;11.90;99966.00;;;;5043300;28;20226;-82
2021/11/03 08:53:08;;;;;;;5.18;3.97;;;;;11.90;99977.00;;;;5036994;28;20196;-81
2021/11/03 08:55:35;;;;;;;5.35;4.50;;;;;12.00;99977.00;;;;5042464;28;20207;-81
2021/11/03 08:58:05;;;;;;;9.55;4.03;;;;;12.00;99967.00;;;;5028240;28;20750;-81
2021/11/03 09:00:34;;;;;;;7.07;4.85;;;;;12.10;99978.00;;;;5031923;28;20738;-82
2021/11/03 09:03:03;;;;;;;5.75;5.00;;;;;12.20;99984.00;;;;5036771;28;20196;-82
2021/11/03 09:05:31;;;;;;;15.63;4.82;;;;;12.20;99980.00;;;;5034492;28;20200;-81
2021/11/03 09:08:00;;;;;;;6.30;4.45;;;;;12.30;99988.00;;;;5033312;28;20200;-81
2021/11/03 09:10:32;;;;;;;6.93;5.07;;;;;12.40;99994.00;;;;5034959;28;20226;-82
2021/11/03 09:13:00;;;;;;;6.45;4.97;;;;;12.40;99999.00;;;;5040789;28;20189;-81
2021/11/03 09:15:28;;;;;;;5.80;4.95;;;;;12.50;99994.00;;;;5028543;28;20208;-81
2021/11/03 09:17:56;;;;;;;6.07;5.25;;;;;12.60;99996.00;;;;5037419;28;20230;-82
2021/11/03 09:21:04;;;;;;;7.88;5.57;;;;;12.60;99999.00;;;;5042148;28;20231;-82
2021/11/03 09:23:32;;;;;;;5.97;4.57;;;;;12.70;99997.00;;;;5033000;28;20280;-82
2021/11/03 09:26:01;;;;;;;8.18;5.07;;;;;12.70;99987.00;;;;5040237;28;20196;-81
2021/11/03 09:28:31;;;;;;;6.93;4.82;;;;;12.80;99989.00;;;;5045220;28;20207;-81
2021/11/03 09:31:02;;;;;;;8.07;5.97;;;;;12.90;99995.00;;;;5037639;28;20201;-82
2021/11/03 09:33:29;;;;;;;7.30;5.45;;;;;13.00;99997.00;;;;5032557;28;20662;-82
2021/11/03 09:35:57;;;;;;;7.03;6.03;;;;;13.00;99999.00;;;;5031488;28;20200;-80
2021/11/03 09:38:26;;;;;;;8.15;6.18;;;;;13.00;99999.00;;;;5038351;28;20228;-81
2021/11/03 09:40:56;;;;;;;6.95;5.82;;;;;13.00;100013.00;;;;5038077;28;20192;-82
2021/11/03 09:43:33;;;;;;;7.20;6.05;;;;;13.00;100007.00;;;;5032277;28;20194;-82
2021/11/03 09:46:03;;;;;;;8.43;6.07;;;;;13.10;100006.00;;;;5041016;28;20192;-82
2021/11/03 09:48:34;;;;;;;7.78;6.05;;;;;13.10;100012.00;;;;5045566;28;20204;-82
2021/11/03 09:51:06;;;;;;;6.93;5.55;;;;;13.10;100018.00;;;;5035730;28;20193;-82
2021/11/03 09:53:47;;;;;;;7.72;6.05;;;;;13.10;100023.00;;;;5031346;28;20211;-81
2021/11/03 09:56:17;;;;;;;7.03;5.18;;;;;13.10;100013.00;;;;5044937;28;20203;-82
2021/11/03 09:59:17;;;;;;;6.93;5.55;;;;;13.00;100013.00;;;;5033400;28;20235;-82
2021/11/03 10:01:49;;;;;;;8.63;4.57;;;;;13.10;100022.00;;;;5029021;28;20274;-82
2021/11/03 10:04:39;;;;;;;5.45;4.72;;;;;13.10;100029.00;;;;5033802;28;20376;-82
2021/11/03 10:07:16;;;;;;;6.22;4.63;;;;;13.10;100023.00;;;;5044514;28;20225;-82
2021/11/03 10:09:43;;;;;;;6.45;4.70;;;;;13.20;100025.00;;;;5033555;28;20191;-82
2021/11/03 10:12:13;;;;;;;12.77;5.20;;;;;13.20;100029.00;;;;5032877;28;20720;-82
2021/11/03 10:14:43;;;;;;;5.80;4.63;;;;;13.20;100024.00;;;;5041122;28;20207;-82
2021/11/03 10:17:23;;;;;;;5.93;4.57;;;;;13.20;100027.00;;;;5035896;28;20235;-81
2021/11/03 10:19:51;;;;;;;6.05;3.90;;;;;13.30;100026.00;;;;5044584;28;20573;-82
2021/11/03 10:22:32;;;;;;;6.03;4.85;;;;;13.30;100034.00;;;;5032461;28;20212;-81
2021/11/03 10:25:21;;;;;;;4.93;4.30;;;;;13.40;100031.00;;;;5039236;28;20302;-81
2021/11/03 10:27:52;;;;;;;8.13;4.70;;;;;13.40;100019.00;;;;5036795;28;20199;-82
2021/11/03 10:30:29;;;;;;;9.82;4.63;;;;;13.40;100025.00;;;;5048380;28;20283;-81
2021/11/03 10:32:58;;;;;;;6.78;5.00;;;;;13.50;100027.00;;;;5044858;28;20211;-80
2021/11/03 10:35:32;;;;;;;6.85;5.22;;;;;13.50;100020.00;;;;5030520;28;20211;-82
2021/11/03 10:38:08;;;;;;;6.47;5.10;;;;;13.60;100016.00;;;;5029909;28;20223;-82
2021/11/03 10:40:45;;;;;;;5.20;4.28;;;;;13.50;100014.00;;;;5034224;28;20200;-82
2021/11/03 10:43:26;;;;;;;7.57;5.32;;;;;13.60;100013.00;;;;5039086;28;20637;-82
2021/11/03 10:46:07;;;;;;;5.90;4.82;;;;;13.60;100016.00;;;;5042033;28;20278;-81
2021/11/03 10:48:34;;;;;;;6.05;5.15;;;;;13.80;100019.00;;;;5042601;28;20208;-82
2021/11/03 10:51:15;;;;;;;7.45;5.15;;;;;13.70;100013.00;;;;5035878;28;20654;-82
2021/11/03 10:53:52;;;;;;;7.75;5.78;;;;;13.80;100018.00;;;;5033543;28;20287;-82
2021/11/03 10:56:26;;;;;;;6.57;5.07;;;;;13.90;100012.00;;;;5031339;28;20199;-83
2021/11/03 10:59:04;;;;;;;7.15;5.97;;;;;13.90;100015.00;;;;5037372;28;20228;-81
2021/11/03 11:01:38;;;;;;;7.68;5.43;;;;;13.90;100011.00;;;;5034238;28;20200;-82
2021/11/03 11:04:11;;;;;;;6.03;4.70;;;;;14.00;100008.00;;;;5030516;28;20672;-83
2021/11/03 11:06:42;;;;;;;5.88;5.20;;;;;14.10;100004.00;;;;5033047;28;20200;-82
2021/11/03 11:09:26;;;;;;;6.97;5.60;;;;;14.00;99999.00;;;;5030048;28;21031;-83
2021/11/03 11:11:59;;;;;;;6.25;5.18;;;;;14.10;99999.00;;;;5043570;28;20227;-82
2021/11/03 11:14:31;;;;;;;6.90;5.70;;;;;14.20;99996.00;;;;5050052;28;20291;-83
2021/11/03 11:17:04;;;;;;;8.25;5.68;;;;;14.20;100001.00;;;;5049615;28;20573;-82
2021/11/03 11:19:44;;;;;;;8.25;6.10;;;;;14.30;100001.00;;;;5038668;28;20196;-82
2021/11/03 11:22:36;;;;;;;8.35;5.80;;;;;14.30;100002.00;;;;5031030;28;21215;-81
2021/11/03 11:25:12;;;;;;;7.88;5.85;;;;;14.40;100009.00;;;;5026303;28;20200;-82
2021/11/03 11:27:53;;;;;;;7.97;5.78;;;;;14.40;100005.00;;;;5046661;28;20284;-84
2021/11/03 11:30:22;;;;;;;8.07;6.15;;;;;14.50;100003.00;;;;5031023;28;20685;-84
2021/11/03 11:33:02;;;;;;;9.93;7.20;;;;;14.50;100000.00;;;;5040419;28;20200;-82
2021/11/03 11:35:40;;;;;;;9.23;6.65;;;;;14.50;100004.00;;;;5037158;28;20228;-82
2021/11/03 11:38:15;;;;;;;8.02;6.25;;;;;14.60;100006.00;;;;5037893;28;20227;-84
2021/11/03 11:40:51;;;;;;;9.75;7.25;;;;;14.60;100003.00;;;;5038445;28;20198;-83
2021/11/03 11:43:27;;;;;;;9.98;6.78;;;;;14.70;99996.00;;;;5038716;28;20694;-84
2021/11/03 11:45:55;;;;;;;12.77;7.25;;;;;14.70;99989.00;;;;5028545;28;20258;-83
2021/11/03 11:48:31;;;;;;;9.85;7.60;;;;;14.70;99987.00;;;;5034290;28;20214;-83
2021/11/03 11:51:02;;;;;;;11.30;7.50;;;;;14.80;99988.00;;;;5034037;28;20908;-82
2021/11/03 11:53:33;;;;;;;10.50;8.20;;;;;14.80;99989.00;;;;5034998;28;20206;-82
2021/11/03 11:56:20;;;;;;;9.30;6.70;;;;;14.80;99986.00;;;;5031054;28;20192;-83
2021/11/03 11:58:51;;;;;;;9.77;7.80;;;;;15.00;99983.00;;;;5027627;28;20308;-82
2021/11/03 12:01:36;;;;;;;10.80;7.55;;;;;15.00;99991.00;;;;5037346;28;20234;-82
2021/11/03 12:04:43;;;;;;;8.45;6.28;;;;;15.00;99989.00;;;;5043105;28;20673;-83
2021/11/03 12:07:25;;;;;;;11.40;6.75;;;;;15.10;99987.00;;;;5039534;28;20210;-82
2021/11/03 12:10:28;;;;;;;9.68;7.05;;;;;15.20;99982.00;;;;5039884;28;20203;-84
2021/11/03 12:13:18;;;;;;;10.65;7.40;;;;;15.20;99982.00;;;;5042233;28;20593;-83
2021/11/03 12:16:09;;;;;;;9.88;6.93;;;;;15.30;99983.00;;;;5032583;28;20203;-83
2021/11/03 12:18:45;;;;;;;12.15;8.40;;;;;15.40;99990.00;;;;5028193;28;20311;-83
2021/11/03 12:21:17;;;;;;;9.70;6.80;;;;;15.50;99984.00;;;;5032096;28;20200;-83
2021/11/03 12:23:49;;;;;;;10.93;7.22;;;;;15.60;99984.00;;;;5029322;28;20196;-83
2021/11/03 12:26:41;;;;;;;10.90;7.45;;;;;15.60;99980.00;;;;5038089;28;20204;-81
2021/11/03 12:29:41;;;;;;;9.60;7.40;;;;;15.70;99980.00;;;;5033465;28;20200;-83
2021/11/03 12:32:25;;;;;;;9.95;7.47;;;;;15.70;99977.00;;;;5031669;28;20200;-83